createdAt,value
2018-01-20T00:00:43.083Z,2.24
2018-01-20T00:03:10.596Z,2.25
2018-01-20T00:05:38.088Z,2.28
2018-01-20T00:08:05.591Z,2.30
2018-01-20T00:13:39.895Z,2.25
2018-01-20T00:16:08.172Z,2.28
2018-01-20T00:18:35.668Z,2.29
2018-01-20T00:21:03.160Z,2.27
2018-01-20T00:23:30.662Z,2.22
2018-01-20T00:26:03.640Z,2.21
2018-01-20T00:28:31.162Z,2.20
2018-01-20T00:30:58.666Z,2.23
2018-01-20T00:33:26.184Z,2.20
2018-01-20T00:35:53.672Z,2.16
2018-01-20T00:38:21.183Z,2.18
2018-01-20T00:40:48.698Z,2.16
2018-01-20T00:43:16.209Z,2.18
2018-01-20T00:45:43.703Z,2.19
2018-01-20T00:48:11.214Z,2.15
2018-01-20T00:50:38.734Z,2.05
2018-01-20T00:53:06.220Z,2.06
2018-01-20T00:55:33.721Z,2.09
2018-01-20T00:58:01.208Z,2.08
2018-01-20T01:00:29.154Z,1.94
2018-01-20T01:02:56.655Z,1.91
2018-01-20T01:05:24.162Z,1.92
2018-01-20T01:07:51.656Z,1.82
2018-01-20T01:10:19.136Z,1.83
2018-01-20T01:12:46.612Z,1.84
2018-01-20T01:15:14.119Z,1.83
2018-01-20T01:17:41.833Z,1.78
2018-01-20T01:20:09.337Z,1.81
2018-01-20T01:22:36.853Z,1.80
2018-01-20T01:25:04.371Z,1.81
2018-01-20T01:27:31.897Z,1.71
2018-01-20T01:29:59.391Z,1.61
2018-01-20T01:32:26.892Z,1.60
2018-01-20T01:34:54.388Z,1.61
2018-01-20T01:37:21.872Z,1.58
2018-01-20T01:39:49.427Z,1.60
2018-01-20T01:42:16.939Z,1.61
2018-01-20T01:44:44.436Z,1.61
2018-01-20T01:47:11.955Z,1.66
2018-01-20T01:49:39.466Z,1.64
2018-01-20T01:52:07.406Z,1.62
2018-01-20T01:54:34.896Z,1.61
2018-01-20T01:57:02.403Z,1.63
2018-01-20T01:59:29.892Z,1.61
2018-01-20T02:01:58.174Z,1.66
2018-01-20T02:04:25.668Z,1.60
2018-01-20T02:06:53.178Z,1.65
2018-01-20T02:09:20.676Z,1.70
2018-01-20T02:11:48.186Z,1.72
2018-01-20T02:14:15.675Z,1.77
2018-01-20T02:16:43.182Z,1.79
2018-01-20T02:19:10.692Z,1.86
2018-01-20T02:21:38.183Z,1.87
2018-01-20T02:24:05.673Z,1.92
2018-01-20T02:26:33.179Z,1.92
2018-01-20T02:29:00.675Z,1.99
2018-01-20T02:31:28.178Z,2.07
2018-01-20T02:33:55.674Z,2.06
2018-01-20T02:36:23.156Z,2.13
2018-01-20T02:38:50.650Z,2.15
2018-01-20T02:41:18.166Z,2.17
2018-01-20T02:43:45.698Z,2.16
2018-01-20T02:46:13.197Z,2.15
2018-01-20T02:48:40.702Z,2.19
2018-01-20T02:51:08.194Z,2.17
2018-01-20T02:53:35.695Z,2.16
2018-01-20T02:56:03.895Z,2.18
2018-01-20T02:58:31.422Z,2.06
2018-01-20T03:00:58.916Z,2.00
2018-01-20T03:03:26.404Z,2.00
2018-01-20T03:05:53.939Z,1.95
2018-01-20T03:08:21.454Z,1.98
2018-01-20T03:10:48.993Z,1.93
2018-01-20T03:13:17.090Z,1.96
2018-01-20T03:15:44.594Z,1.88
2018-01-20T03:18:12.094Z,1.88
2018-01-20T03:20:39.602Z,1.86
2018-01-20T03:23:07.255Z,1.89
2018-01-20T03:25:34.732Z,1.89
2018-01-20T03:28:02.243Z,1.91
2018-01-20T03:30:29.737Z,1.96
2018-01-20T03:32:57.247Z,1.95
2018-01-20T03:35:24.738Z,1.97
2018-01-20T03:37:52.224Z,1.90
2018-01-20T03:40:19.718Z,1.88
2018-01-20T03:42:47.222Z,1.88
2018-01-20T03:45:14.730Z,1.84
2018-01-20T03:47:42.222Z,1.75
2018-01-20T03:50:09.712Z,1.66
2018-01-20T03:52:37.206Z,1.61
2018-01-20T03:55:04.696Z,1.58
2018-01-20T03:57:32.194Z,1.60
2018-01-20T03:59:59.707Z,1.54
2018-01-20T04:02:27.218Z,1.57
2018-01-20T04:04:54.700Z,1.61
2018-01-20T04:07:22.199Z,1.62
2018-01-20T04:09:49.714Z,1.67
2018-01-20T04:12:17.215Z,1.75
2018-01-20T04:14:44.713Z,1.78
2018-01-20T04:17:12.208Z,1.82
2018-01-20T04:19:39.702Z,1.84
2018-01-20T04:22:07.185Z,1.84
2018-01-20T04:24:34.686Z,1.86
2018-01-20T04:27:02.200Z,1.86
2018-01-20T04:29:29.728Z,1.85
2018-01-20T04:31:57.208Z,1.92
2018-01-20T04:34:24.706Z,1.89
2018-01-20T04:36:52.200Z,1.90
2018-01-20T04:39:19.691Z,1.92
2018-01-20T04:41:47.173Z,1.90
2018-01-20T04:44:14.656Z,1.90
2018-01-20T04:46:42.135Z,1.87
2018-01-20T04:49:09.630Z,1.88
2018-01-20T04:51:37.126Z,1.89
2018-01-20T04:54:04.622Z,1.91
2018-01-20T04:56:32.128Z,1.89
2018-01-20T04:58:59.635Z,1.91
2018-01-20T05:01:27.140Z,1.93
2018-01-20T05:03:54.647Z,1.94
2018-01-20T05:06:22.174Z,1.94
2018-01-20T05:08:49.649Z,1.93
2018-01-20T05:11:17.152Z,1.94
2018-01-20T05:13:44.905Z,1.95
2018-01-20T05:16:12.400Z,1.94
2018-01-20T05:18:39.884Z,1.93
2018-01-20T05:21:07.435Z,1.94
2018-01-20T05:23:34.888Z,1.97
2018-01-20T05:26:02.395Z,1.96
2018-01-20T05:28:29.902Z,1.98
2018-01-20T05:30:57.419Z,1.98
2018-01-20T05:33:24.931Z,1.97
2018-01-20T05:35:52.442Z,1.98
2018-01-20T05:38:19.946Z,1.98
2018-01-20T05:40:47.429Z,2.01
2018-01-20T05:43:14.934Z,2.00
2018-01-20T05:45:42.415Z,2.05
2018-01-20T05:48:09.900Z,2.04
2018-01-20T05:50:37.400Z,2.08
2018-01-20T05:53:04.912Z,2.12
2018-01-20T05:55:32.415Z,2.10
2018-01-20T05:57:59.910Z,2.12
2018-01-20T06:00:27.412Z,2.16
2018-01-20T06:02:54.909Z,2.17
2018-01-20T06:05:22.384Z,2.18
2018-01-20T06:07:49.868Z,2.17
2018-01-20T06:10:17.382Z,2.18
2018-01-20T06:12:44.880Z,2.19
2018-01-20T06:15:12.394Z,2.24
2018-01-20T06:17:39.902Z,2.25
2018-01-20T06:20:07.415Z,2.27
2018-01-20T06:22:34.918Z,2.28
2018-01-20T06:25:02.420Z,2.30
2018-01-20T06:27:29.909Z,2.33
2018-01-20T06:29:57.399Z,2.31
2018-01-20T06:32:24.900Z,2.37
2018-01-20T06:34:52.401Z,2.36
2018-01-20T06:37:19.911Z,2.36
2018-01-20T06:39:47.418Z,2.41
2018-01-20T06:42:14.940Z,2.40
2018-01-20T06:44:43.005Z,2.40
2018-01-20T06:47:10.568Z,2.43
2018-01-20T06:49:38.217Z,2.45
2018-01-20T06:52:09.791Z,2.44
2018-01-20T06:54:37.530Z,2.41
2018-01-20T06:57:05.043Z,2.45
2018-01-20T06:59:32.578Z,2.48
2018-01-20T07:02:00.122Z,2.47
2018-01-20T07:04:27.821Z,2.48
2018-01-20T07:06:55.345Z,2.49
2018-01-20T07:09:22.844Z,2.50
2018-01-20T07:11:50.486Z,2.51
2018-01-20T07:14:17.994Z,2.52
2018-01-20T07:16:49.008Z,2.52
2018-01-20T07:19:16.527Z,2.50
2018-01-20T07:21:44.013Z,2.51
2018-01-20T07:24:11.507Z,2.50
2018-01-20T07:26:39.024Z,2.54
2018-01-20T07:29:06.536Z,2.54
2018-01-20T07:31:34.032Z,2.52
2018-01-20T07:34:01.550Z,2.40
2018-01-20T07:36:36.036Z,2.42
2018-01-20T07:39:03.598Z,2.36
2018-01-20T07:41:32.029Z,2.43
2018-01-20T07:43:59.528Z,2.46
2018-01-20T07:46:27.017Z,2.50
2018-01-20T07:48:54.530Z,2.53
2018-01-20T07:51:22.095Z,2.52
2018-01-20T07:53:49.580Z,2.51
2018-01-20T07:56:17.796Z,2.45
2018-01-20T07:58:45.288Z,2.52
2018-01-20T08:01:12.786Z,2.56
2018-01-20T08:03:40.310Z,2.64
2018-01-20T08:06:07.821Z,2.64
2018-01-20T08:08:35.291Z,2.74
2018-01-20T08:11:02.804Z,2.95
2018-01-20T08:13:30.329Z,3.32
2018-01-20T08:15:57.820Z,3.65
2018-01-20T08:18:25.462Z,3.98
2018-01-20T08:20:52.965Z,4.37
2018-01-20T08:23:20.440Z,4.55
2018-01-20T08:25:47.927Z,4.43
2018-01-20T08:28:15.453Z,4.10
2018-01-20T08:30:42.924Z,3.79
2018-01-20T08:33:10.419Z,3.62
2018-01-20T08:35:37.892Z,3.80
2018-01-20T08:38:05.376Z,3.79
2018-01-20T08:40:32.864Z,3.96
2018-01-20T08:43:00.348Z,4.14
2018-01-20T08:45:27.855Z,4.28
2018-01-20T08:47:55.347Z,4.49
2018-01-20T08:50:22.834Z,4.18
2018-01-20T08:52:50.331Z,4.23
2018-01-20T08:55:17.853Z,4.36
2018-01-20T08:57:45.328Z,4.98
2018-01-20T09:00:12.827Z,5.68
2018-01-20T09:02:40.320Z,6.10
2018-01-20T09:05:07.804Z,6.51
2018-01-20T09:07:35.358Z,5.96
2018-01-20T09:10:02.828Z,5.41
2018-01-20T09:12:30.324Z,4.84
2018-01-20T09:14:57.805Z,5.03
2018-01-20T09:17:25.327Z,5.13
2018-01-20T09:19:52.823Z,6.06
2018-01-20T09:22:20.300Z,6.41
2018-01-20T09:24:48.160Z,7.05
2018-01-20T09:27:15.655Z,7.40
2018-01-20T09:29:43.172Z,7.28
2018-01-20T09:32:10.644Z,7.12
2018-01-20T09:34:38.144Z,7.74
2018-01-20T09:37:05.640Z,7.82
2018-01-20T09:39:33.127Z,8.62
2018-01-20T09:42:00.596Z,8.28
2018-01-20T09:44:28.073Z,8.67
2018-01-20T09:46:55.574Z,8.87
2018-01-20T09:49:23.092Z,7.91
2018-01-20T09:51:50.598Z,7.40
2018-01-20T09:54:18.070Z,7.15
2018-01-20T09:56:45.579Z,6.76
2018-01-20T09:59:13.070Z,6.38
2018-01-20T10:01:40.580Z,5.89
2018-01-20T10:04:08.072Z,5.55
2018-01-20T10:06:35.583Z,5.06
2018-01-20T10:09:03.092Z,5.18
2018-01-20T10:11:30.574Z,5.12
2018-01-20T10:13:58.058Z,5.01
2018-01-20T10:16:25.549Z,4.94
2018-01-20T10:18:53.034Z,4.87
2018-01-20T10:21:21.196Z,5.03
2018-01-20T10:23:48.706Z,4.97
2018-01-20T10:26:16.199Z,4.91
2018-01-20T10:28:43.691Z,4.87
2018-01-20T10:31:11.173Z,4.88
2018-01-20T10:33:38.652Z,4.98
2018-01-20T10:36:06.126Z,4.99
2018-01-20T10:38:33.622Z,4.95
2018-01-20T10:41:01.103Z,4.92
2018-01-20T10:43:28.609Z,4.81
2018-01-20T10:45:56.943Z,4.77
2018-01-20T10:48:24.430Z,4.75
2018-01-20T10:50:51.908Z,4.84
2018-01-20T10:53:19.390Z,4.68
2018-01-20T10:55:46.883Z,4.57
2018-01-20T10:58:14.367Z,4.53
2018-01-20T11:00:41.878Z,4.34
2018-01-20T11:03:09.382Z,4.47
2018-01-20T11:05:36.906Z,4.46
2018-01-20T11:08:04.399Z,4.56
2018-01-20T11:10:31.915Z,4.43
2018-01-20T11:12:59.416Z,4.44
2018-01-20T11:15:26.930Z,4.48
2018-01-20T11:17:54.422Z,4.45
2018-01-20T11:20:21.919Z,4.41
2018-01-20T11:22:49.408Z,4.52
2018-01-20T11:25:16.884Z,4.50
2018-01-20T11:27:44.363Z,4.51
2018-01-20T11:30:11.854Z,4.49
2018-01-20T11:32:39.355Z,4.44
2018-01-20T11:35:08.510Z,4.49
2018-01-20T11:37:36.009Z,4.22
2018-01-20T11:40:03.488Z,3.86
2018-01-20T11:42:31.024Z,3.81
2018-01-20T11:44:59.362Z,3.79
2018-01-20T11:47:27.782Z,3.59
2018-01-20T11:49:55.984Z,3.52
2018-01-20T11:52:23.510Z,3.59
2018-01-20T11:54:51.882Z,3.63
2018-01-20T11:57:19.384Z,3.46
2018-01-20T11:59:46.952Z,3.25
2018-01-20T12:02:14.439Z,3.22
2018-01-20T12:04:41.935Z,3.36
2018-01-20T12:07:09.475Z,3.49
2018-01-20T12:09:36.987Z,3.56
2018-01-20T12:12:04.523Z,3.62
2018-01-20T12:14:32.020Z,3.63
2018-01-20T12:16:59.531Z,3.66
2018-01-20T12:19:27.009Z,3.69
2018-01-20T12:21:54.555Z,3.75
2018-01-20T12:24:22.077Z,3.86
2018-01-20T12:26:49.616Z,3.91
2018-01-20T12:29:17.125Z,3.96
2018-01-20T12:31:44.648Z,3.99
2018-01-20T12:34:12.216Z,4.03
2018-01-20T12:36:39.811Z,4.12
2018-01-20T12:39:07.315Z,4.15
2018-01-20T12:41:34.824Z,4.20
2018-01-20T12:44:02.379Z,4.20
2018-01-20T12:46:29.840Z,4.22
2018-01-20T12:48:57.368Z,4.24
2018-01-20T12:51:25.745Z,4.37
2018-01-20T12:53:53.240Z,4.35
2018-01-20T12:56:20.763Z,4.34
2018-01-20T12:58:48.266Z,4.39
2018-01-20T13:01:15.752Z,4.41
2018-01-20T13:03:43.250Z,4.42
2018-01-20T13:06:10.750Z,4.43
2018-01-20T13:08:38.757Z,4.36
2018-01-20T13:11:06.260Z,4.39
2018-01-20T13:13:33.758Z,4.42
2018-01-20T13:16:01.263Z,4.33
2018-01-20T13:18:28.744Z,4.34
2018-01-20T13:20:56.233Z,4.33
2018-01-20T13:23:23.730Z,4.26
2018-01-20T13:25:51.244Z,4.26
2018-01-20T13:28:18.724Z,4.28
2018-01-20T13:30:46.204Z,4.26
2018-01-20T13:33:13.685Z,4.29
2018-01-20T13:35:41.205Z,4.14
2018-01-20T13:38:08.761Z,4.07
2018-01-20T13:40:36.368Z,4.11
2018-01-20T13:43:03.846Z,4.05
2018-01-20T13:45:31.342Z,4.02
2018-01-20T13:47:58.824Z,4.00
2018-01-20T13:50:26.912Z,3.92
2018-01-20T13:52:54.393Z,4.00
2018-01-20T13:55:22.430Z,3.92
2018-01-20T13:57:49.922Z,3.93
2018-01-20T14:00:17.522Z,3.87
2018-01-20T14:02:44.992Z,3.86
2018-01-20T14:05:12.486Z,3.83
2018-01-20T14:07:39.992Z,3.79
2018-01-20T14:10:07.503Z,3.82
2018-01-20T14:12:34.972Z,3.84
2018-01-20T14:15:02.447Z,3.84
2018-01-20T14:17:29.933Z,3.83
2018-01-20T14:19:57.451Z,3.84
2018-01-20T14:22:26.418Z,3.80
2018-01-20T14:24:53.914Z,3.82
2018-01-20T14:27:21.416Z,3.78
2018-01-20T14:29:48.923Z,3.80
2018-01-20T14:32:17.051Z,3.76
2018-01-20T14:34:44.558Z,3.83
2018-01-20T14:37:12.051Z,3.81
2018-01-20T14:39:39.524Z,3.82
2018-01-20T14:42:07.051Z,3.83
2018-01-20T14:44:34.528Z,3.82
2018-01-20T14:47:02.031Z,3.84
2018-01-20T14:49:29.537Z,3.77
2018-01-20T14:51:57.004Z,3.77
2018-01-20T14:54:24.482Z,3.76
2018-01-20T14:56:51.989Z,3.77
2018-01-20T14:59:19.528Z,3.79
2018-01-20T15:01:47.016Z,3.76
2018-01-20T15:04:15.382Z,3.70
2018-01-20T15:06:43.617Z,3.65
2018-01-20T15:09:11.118Z,3.62
2018-01-20T15:11:38.612Z,3.67
2018-01-20T15:14:06.137Z,3.69
2018-01-20T15:16:33.608Z,3.68
2018-01-20T15:19:01.132Z,3.68
2018-01-20T15:21:28.630Z,3.63
2018-01-20T15:23:56.116Z,3.67
2018-01-20T15:26:23.633Z,3.65
2018-01-20T15:28:51.132Z,3.66
2018-01-20T15:31:18.634Z,3.58
2018-01-20T15:33:46.127Z,3.59
2018-01-20T15:36:13.604Z,3.55
2018-01-20T15:38:41.102Z,3.53
2018-01-20T15:41:08.608Z,3.52
2018-01-20T15:43:36.103Z,3.54
2018-01-20T15:46:03.592Z,3.52
2018-01-20T15:48:31.080Z,3.45
2018-01-20T15:50:58.581Z,3.45
2018-01-20T15:53:26.112Z,3.33
2018-01-20T15:55:53.597Z,3.33
2018-01-20T15:58:21.091Z,3.29
2018-01-20T16:00:48.583Z,3.23
2018-01-20T16:03:16.068Z,3.16
2018-01-20T16:05:43.742Z,3.15
2018-01-20T16:08:11.271Z,3.13
2018-01-20T16:10:38.773Z,3.10
2018-01-20T16:13:06.282Z,3.08
2018-01-20T16:15:33.779Z,3.05
2018-01-20T16:18:01.257Z,3.02
2018-01-20T16:20:28.994Z,3.04
2018-01-20T16:22:56.536Z,2.97
2018-01-20T16:25:24.014Z,2.95
2018-01-20T16:27:51.502Z,2.94
2018-01-20T16:30:18.985Z,2.84
2018-01-20T16:32:46.486Z,2.78
2018-01-20T16:35:15.616Z,2.73
2018-01-20T16:37:43.117Z,2.68
2018-01-20T16:40:10.626Z,2.62
2018-01-20T16:42:38.140Z,2.55
2018-01-20T16:45:05.659Z,2.53
2018-01-20T16:47:33.152Z,2.50
2018-01-20T16:50:00.688Z,2.50
2018-01-20T16:52:28.190Z,2.44
2018-01-20T16:54:56.176Z,2.42
2018-01-20T16:57:23.656Z,2.48
2018-01-20T16:59:51.179Z,2.46
2018-01-20T17:02:18.687Z,2.44
2018-01-20T17:04:46.176Z,2.43
2018-01-20T17:07:13.656Z,2.43
2018-01-20T17:09:41.156Z,2.38
2018-01-20T17:12:08.659Z,2.41
2018-01-20T17:14:36.199Z,2.41
2018-01-20T17:17:03.701Z,2.38
2018-01-20T17:19:31.199Z,2.32
2018-01-20T17:21:58.676Z,2.33
2018-01-20T17:24:26.178Z,2.30
2018-01-20T17:26:53.728Z,2.27
2018-01-20T17:29:21.438Z,2.33
2018-01-20T17:31:48.964Z,2.32
2018-01-20T17:34:16.467Z,2.28
2018-01-20T17:36:43.998Z,2.34
2018-01-20T17:39:12.003Z,2.34
2018-01-20T17:41:39.513Z,2.31
2018-01-20T17:44:07.016Z,2.31
2018-01-20T17:46:34.569Z,2.22
2018-01-20T17:49:03.316Z,2.28
2018-01-20T17:51:30.814Z,2.21
2018-01-20T17:53:58.300Z,2.23
2018-01-20T17:56:25.796Z,2.26
2018-01-20T17:58:53.280Z,2.23
2018-01-20T18:01:20.781Z,2.23
2018-01-20T18:03:48.264Z,2.25
2018-01-20T18:06:15.773Z,2.25
2018-01-20T18:08:43.413Z,2.24
2018-01-20T18:11:10.948Z,2.18
2018-01-20T18:13:38.519Z,2.17
2018-01-20T18:16:06.178Z,2.28
2018-01-20T18:18:49.225Z,2.19
2018-01-20T18:23:44.488Z,2.18
2018-01-20T18:26:12.005Z,2.22
2018-01-20T18:28:39.499Z,2.21
2018-01-20T18:31:06.996Z,2.18
2018-01-20T18:33:34.507Z,2.18
2018-01-20T18:36:03.017Z,2.19
2018-01-20T18:38:30.636Z,2.21
2018-01-20T18:40:58.142Z,2.23
2018-01-20T18:43:25.706Z,2.24
2018-01-20T18:45:55.128Z,2.23
2018-01-20T18:48:22.658Z,2.27
2018-01-20T18:50:50.317Z,2.25
2018-01-20T18:53:18.334Z,2.28
2018-01-20T18:55:46.819Z,2.27
2018-01-20T18:58:14.512Z,2.25
2018-01-20T19:00:42.068Z,2.26
2018-01-20T19:03:09.731Z,2.25
2018-01-20T19:05:37.253Z,2.23
2018-01-20T19:08:04.830Z,2.20
2018-01-20T19:10:32.338Z,2.17
2018-01-20T19:12:59.832Z,2.18
2018-01-20T19:15:27.373Z,2.18
2018-01-20T19:17:54.881Z,2.18
2018-01-20T19:20:22.413Z,2.18
2018-01-20T19:22:49.948Z,2.19
2018-01-20T19:25:17.446Z,2.15
2018-01-20T19:27:45.645Z,2.16
2018-01-20T19:30:13.192Z,2.15
2018-01-20T19:32:40.711Z,2.14
2018-01-20T19:35:08.189Z,2.10
2018-01-20T19:37:35.700Z,2.11
2018-01-20T19:40:03.220Z,2.16
2018-01-20T19:42:30.727Z,2.14
2018-01-20T19:44:58.250Z,2.14
2018-01-20T19:47:25.777Z,2.10
2018-01-20T19:49:53.260Z,2.09
2018-01-20T19:52:20.762Z,2.10
2018-01-20T19:54:48.247Z,2.08
2018-01-20T19:57:15.748Z,2.09
2018-01-20T19:59:43.239Z,2.05
2018-01-20T20:02:11.444Z,2.05
2018-01-20T20:04:38.994Z,2.06
2018-01-20T20:07:06.514Z,2.04
2018-01-20T20:09:34.023Z,2.02
2018-01-20T20:12:01.542Z,2.04
2018-01-20T20:14:29.044Z,2.04
2018-01-20T20:16:56.555Z,2.04
2018-01-20T20:19:24.059Z,2.08
2018-01-20T20:21:51.548Z,2.09
2018-01-20T20:24:19.050Z,2.09
2018-01-20T20:26:46.602Z,2.07
2018-01-20T20:29:14.088Z,1.99
2018-01-20T20:31:41.580Z,2.05
2018-01-20T20:34:09.883Z,2.07
2018-01-20T20:36:37.491Z,2.04
2018-01-20T20:39:05.039Z,2.00
2018-01-20T20:41:32.528Z,2.02
2018-01-20T20:44:00.035Z,2.01
2018-01-20T20:46:27.549Z,2.00
2018-01-20T20:48:55.048Z,1.98
2018-01-20T20:51:22.554Z,1.99
2018-01-20T20:53:50.062Z,2.02
2018-01-20T20:56:17.571Z,2.02
2018-01-20T20:58:45.084Z,1.97
2018-01-20T21:01:12.602Z,2.04
2018-01-20T21:03:40.157Z,1.99
2018-01-20T21:06:07.652Z,2.01
2018-01-20T21:08:35.963Z,2.01
2018-01-20T21:11:03.466Z,1.94
2018-01-20T21:13:30.960Z,1.84
2018-01-20T21:15:58.442Z,1.76
2018-01-20T21:18:25.931Z,1.79
2018-01-20T21:20:53.909Z,1.73
2018-01-20T21:23:21.414Z,1.68
2018-01-20T21:25:48.934Z,1.70
2018-01-20T21:28:16.438Z,1.64
2018-01-20T21:30:43.950Z,1.60
2018-01-20T21:33:11.436Z,1.58
2018-01-20T21:35:38.971Z,1.54
2018-01-20T21:38:06.460Z,1.43
2018-01-20T21:40:33.967Z,1.54
2018-01-20T21:43:02.327Z,1.57
2018-01-20T21:45:29.824Z,1.51
2018-01-20T21:47:57.312Z,1.57
2018-01-20T21:50:24.802Z,1.53
2018-01-20T21:52:52.307Z,1.54
2018-01-20T21:55:19.885Z,1.54
2018-01-20T21:57:47.355Z,1.47
2018-01-20T22:00:14.848Z,1.50
2018-01-20T22:02:42.347Z,1.53
2018-01-20T22:05:09.833Z,1.51
2018-01-20T22:07:37.876Z,1.47
2018-01-20T22:10:05.596Z,1.45
2018-01-20T22:12:33.120Z,1.48
2018-01-20T22:15:00.636Z,1.36
2018-01-20T22:17:28.144Z,1.41
2018-01-20T22:19:56.337Z,1.34
2018-01-20T22:22:23.854Z,1.40
2018-01-20T22:24:51.337Z,1.43
2018-01-20T22:27:18.854Z,1.42
2018-01-20T22:29:46.858Z,1.42
2018-01-20T22:32:14.387Z,1.28
2018-01-20T22:34:41.916Z,1.29
2018-01-20T22:37:09.415Z,1.29
2018-01-20T22:39:36.928Z,1.31
2018-01-20T22:42:04.417Z,1.27
2018-01-20T22:44:31.975Z,1.17
2018-01-20T22:46:59.506Z,1.15
2018-01-20T22:49:26.995Z,1.20
2018-01-20T22:51:54.484Z,1.27
2018-01-20T22:54:21.980Z,1.30
2018-01-20T22:56:49.472Z,1.33
2018-01-20T22:59:16.985Z,1.33
2018-01-20T23:01:44.519Z,1.37
2018-01-20T23:04:12.027Z,1.39
2018-01-20T23:06:39.520Z,1.41
2018-01-20T23:09:07.008Z,1.34
2018-01-20T23:11:34.508Z,1.41
2018-01-20T23:14:02.010Z,1.41
2018-01-20T23:16:29.548Z,1.43
2018-01-20T23:18:57.308Z,1.41
2018-01-20T23:21:24.811Z,1.40
2018-01-20T23:23:52.326Z,1.39
2018-01-20T23:26:19.824Z,1.37
2018-01-20T23:28:47.318Z,1.35
2018-01-20T23:31:14.826Z,1.38
2018-01-20T23:33:42.318Z,1.36
2018-01-20T23:36:09.804Z,1.43
2018-01-20T23:38:37.352Z,1.39
2018-01-20T23:41:05.351Z,1.37
2018-01-20T23:43:32.841Z,1.41
2018-01-20T23:46:00.336Z,1.35
2018-01-20T23:48:27.816Z,1.41
2018-01-20T23:50:55.311Z,1.39
2018-01-20T23:53:22.832Z,1.40
2018-01-20T23:55:50.328Z,1.42
2018-01-20T23:58:17.840Z,1.41
